East Orange, NJ (07018)

3:01 PM EDT on March 25, 2017 (GMT -0400)
Brick Church | | Change Station

Elev 203 ft 40.76 °N, 74.22 °W | Updated 28 seconds ago

Overcast
Overcast
63.4 °F
Feels Like 63.4 °F
N
2.0
Wind Variable Wind from SE

Today
High -- | Low -- °F
--% Chance of Precip.
Yesterday
High -- | Low -- °F
Precip. -- in
Pressure 30.18 in
Visibility 10.0 miles
Clouds Few 4000 ft
Scattered Clouds 9500 ft
Mostly Cloudy 11000 ft
Overcast 26000 ft
Dew Point 46 °F
Humidity 53%
Rainfall 0.00 in
Snow Depth Not available.
6:51 AM 7:14 PM
Waning Crescent, 7% visible
METAR KEWR 251851Z 03009KT 10SM FEW040 SCT095 BKN110 OVC260 16/06 A3018 RMK AO2 RAE1757B14E33 SLP219 P0000 T01610056
Pressure 30.18 in
Visibility 10.0 miles
Clouds Few 4000 ft
Scattered Clouds 9500 ft
Mostly Cloudy 11000 ft
Overcast 26000 ft
Dew Point 46 °F
Humidity 53%
Rainfall 0.00 in
Snow Depth Not available.
6:51 AM 7:14 PM
Waning Crescent, 7% visible
METAR KEWR 251851Z 03009KT 10SM FEW040 SCT095 BKN110 OVC260 16/06 A3018 RMK AO2 RAE1757B14E33 SLP219 P0000 T01610056

Get Severe Weather Alerts

Thanks for signing up!

Be on the lookout for a verification email in your inbox.

You'll start receiving the daily forecast at 8 AM.

×

10-Day Weather Forecast

Almanac

Astronomy

Mar. 25, 2017 Rise Set
Actual Time
Civil Twilight
Nautical Twilight
Astronomical Twilight
Moon
Length of Visible Light
Length of Day
Tomorrow will be .
, % of the Moon is Illuminated

Today's Extremes

State Highs State Lows

Community

WunderPhotos

Upload Photos

1,962,540 photos uploaded!

WunderBlog® & News

Nearby

Air Quality

  Air Quality AQ Index Pollutant
Not available.

Snow Depth

Station Depth Elevation

Earthquake Activity

City Distance Mag. Time & Date
Minimum magnitude displayed is 2.5.

Earthquake Activity

City Distance Mag. Time & Date
Minimum magnitude displayed is 2.5.

Coastal Water Temperatures

Place Temperature

Stations

Nearby Weather Stations

Station Location Temp. Windchill Dew Point Humidity Wind Precip. Elev Updated Type
                   

Watches & Warnings

There are currently no watches in effect.